St-Michel-de-Napierville Airport

CMN3 · Quebec, Canada

METAR historie CMN3 · St-Michel-de-Napierville Airport

Hieronder zie je METAR's van de afgelopen dagen. Kies een jaar om door oudere METAR's te bladeren, vanaf het jaar 2007.

21 februari 2024

Tijd Code Weer Temp. Zicht Plafond Wind METAR/SPECI
13:00
V
3 °C 30 mi 25.000 ft 140° 140° 6 kt METAR CYUL 211800Z 14006KT 30SM SCT170 BKN250 03/M07 A3024 RMK AC3CI4 SLP245
12:00
V
2 °C 30 mi - 130° 130° 7 kt METAR CYUL 211700Z 13007KT 110V170 30SM FEW150 SCT250 02/M07 A3028 RMK AC1CI3 PRESFR SLP259
11:00
V
-2 °C 30 mi 25.000 ft 100° 100° 3 kt METAR CYUL 211600Z 10003KT 30SM BKN250 M02/M08 A3033 RMK CI5 SLP274
10:00
V
-8 °C 15 mi - 020° 020° 7 kt METAR CYUL 211500Z 02007KT 15SM FEW250 M08/M12 A3036 RMK CI1 SLP286
09:00
V
-10 °C 15 mi 25.000 ft 010° 010° 10 kt METAR CYUL 211400Z 01010KT 15SM BKN250 M10/M14 A3039 RMK CI5 SLP296
08:00
V
-12 °C 15 mi - 020° 020° 9 kt METAR CYUL 211300Z 02009KT 15SM SCT250 M12/M15 A3039 RMK CI4 SLP295
07:00
V
-12 °C 15 mi 25.000 ft 030° 030° 10 kt METAR CYUL 211200Z 03010KT 15SM BKN250 M12/M15 A3039 RMK CI5 SLP297
06:00
V
-12 °C 15 mi - 020° 020° 8 kt METAR CYUL 211100Z 02008KT 15SM FEW250 M12/M15 A3040 RMK CI1 SLP299
05:00
V
-12 °C 15 mi - 020° 020° 9 kt METAR CYUL 211000Z 02009KT 15SM SCT250 M12/M15 A3042 RMK CI3 SLP304
04:00
V
-12 °C 15 mi - 020° 020° 9 kt METAR CYUL 210900Z 02009KT 15SM FEW250 M12/M15 A3042 RMK CI1 SLP307
03:00
V
-12 °C 15 mi - 030° 030° 9 kt METAR CYUL 210800Z 03009KT 15SM FEW250 M12/M14 A3044 RMK CI1 CI TR SLP311
02:00
V
-11 °C 15 mi - 020° 020° 8 kt METAR CYUL 210700Z 02008KT 15SM FEW250 M11/M14 A3045 RMK CI1 SLP316
01:00
V
-10 °C 15 mi - 030° 030° 5 kt METAR CYUL 210600Z 03005KT 15SM SCT250 M10/M13 A3045 RMK CI3 SLP316
00:00
V
-9 °C 15 mi - 080° 080° 4 kt METAR CYUL 210500Z 08004KT 15SM FEW037 FEW250 M09/M13 A3047 RMK SC1CI1 SC TR CI TR SLP321

20 februari 2024

Tijd Code Weer Temp. Zicht Plafond Wind METAR/SPECI
23:00
V
-8 °C 15 mi - 070° 070° 7 kt METAR CYUL 210400Z 07007KT 15SM FEW037 FEW240 M08/M11 A3046 RMK SC1CI1 SC TR CI TR SLP319
22:00
V
-7 °C 15 mi 3.600 ft 100° 100° 5 kt METAR CYUL 210300Z 10005KT 060V120 15SM BKN036 M07/M11 A3048 RMK SC6 SLP326
21:00
V
-8 °C 15 mi 3.500 ft 100° 100° 4 kt METAR CYUL 210200Z 10004KT 15SM OVC035 M08/M12 A3050 RMK SC8 SLP332
20:00
V
-8 °C 15 mi - 110° 110° 5 kt METAR CYUL 210100Z 11005KT 15SM FEW090 M08/M12 A3050 RMK AC1 SLP333
19:00
V
-8 °C 15 mi - 110° 110° 6 kt METAR CYUL 210000Z 11006KT 15SM FEW045 M08/M13 A3050 RMK SC1 SC TR SLP335
18:00
V
-7 °C 15 mi - 130° 130° 6 kt METAR CYUL 202300Z 13006KT 15SM FEW045 M07/M13 A3050 RMK SC2 SLP334
17:00
V
-7 °C 15 mi 4.400 ft 190° 190° 5 kt METAR CYUL 202200Z 19005KT 15SM BKN044 M07/M13 A3049 RMK SC6 SLP331
16:00
V
-7 °C 15 mi 4.300 ft 200° 200° 7 kt METAR CYUL 202100Z 20007KT 15SM BKN043 M07/M13 A3049 RMK SC7 SLP329
15:00
V
-7 °C 15 mi 4.200 ft 180° 180° 4 kt METAR CYUL 202000Z 18004KT 150V240 15SM OVC042 M07/M14 A3048 RMK SC8 SLP328
14:00
V
-7 °C 15 mi 12.000 ft 180° 180° 3 kt METAR CYUL 201900Z 18003KT 160V250 15SM SCT040 BKN120 M07/M15 A3048 RMK SC3AC3 SLP328
13:00
V
-7 °C 15 mi 3.200 ft Var Var 2 kt METAR CYUL 201800Z VRB02KT 15SM BKN032 BKN240 M07/M15 A3049 RMK SC6CI1 SLP330
12:00
V
-8 °C 15 mi - 360° 360° 0 kt METAR CYUL 201700Z 00000KT 15SM FEW025 FEW120 FEW240 M08/M16 A3050 RMK CF1AC1CI1 CI TR SLP333
11:00
V
-9 °C 15 mi - Var Var 2 kt METAR CYUL 201600Z VRB02KT 15SM FEW020 FEW120 SCT240 M09/M16 A3050 RMK CF1AC2CI1 CF TR SLP334
10:36
V
-9 °C 15 mi 12.000 ft 360° 360° 0 kt METAR CYUL 201536Z 00000KT 15SM FEW035 BKN120 BKN240 M09/M16 A3050 RMK SC2AC3CI2 SLP332
10:12
V
-9 °C 15 mi 5.400 ft 360° 360° 0 kt METAR CYUL 201512Z 00000KT 15SM -SHSN BKN054 BKN120 OVC240 M09/M16 A3050 RMK SC5AC2CI1 CVCTV CLD EMBD SLP334
10:00
V
-10 °C 15 mi 18.000 ft Var Var 2 kt METAR CYUL 201500Z VRB02KT 15SM SCT050 BKN180 BKN240 M10/M17 A3050 RMK SC4AC2CI1 SLP333
09:00
V
-11 °C 15 mi 5.000 ft 010° 010° 5 kt METAR CYUL 201400Z 01005KT 15SM SCT035 BKN050 BKN250 M11/M17 A3050 RMK SC3SC2CI1 SLP332
08:00
V
-12 °C 15 mi 5.500 ft 340° 340° 3 kt METAR CYUL 201300Z 34003KT 15SM SCT035 BKN055 BKN250 M12/M17 A3047 RMK SC4SC2CI1 SLP325
07:00
V
-13 °C 15 mi 25.000 ft 320° 320° 4 kt METAR CYUL 201200Z 32004KT 15SM SCT055 BKN250 M13/M18 A3046 RMK SC4CI1 SLP319
06:00
V
-12 °C 15 mi 5.700 ft 360° 360° 2 kt METAR CYUL 201100Z 36002KT 15SM BKN057 M12/M17 A3044 RMK SC6 SLP312
05:00
V
-12 °C 15 mi 5.800 ft 290° 290° 3 kt METAR CYUL 201000Z 29003KT 260V330 15SM BKN058 M12/M17 A3043 RMK SC7 SLP310
04:00
V
-12 °C 15 mi 6.200 ft 300° 300° 2 kt METAR CYUL 200900Z 30002KT 15SM BKN062 M12/M18 A3042 RMK SC7 SLP305
03:00
V
-12 °C 15 mi 6.200 ft Var Var 2 kt METAR CYUL 200800Z VRB02KT 15SM BKN062 M12/M18 A3040 RMK SC6 SLP300
02:00
V
-12 °C 15 mi 5.500 ft 350° 350° 4 kt METAR CYUL 200700Z 35004KT 15SM BKN055 M12/M17 A3039 RMK SC6 SLP297
01:00
V
-12 °C 15 mi - 300° 300° 4 kt METAR CYUL 200600Z 30004KT 15SM SCT054 M12/M18 A3038 RMK SC4 SLP294
00:00
V
-12 °C 15 mi 6.000 ft 250° 250° 4 kt METAR CYUL 200500Z 25004KT 15SM BKN060 M12/M18 A3038 RMK SC5 SLP292

19 februari 2024

Tijd Code Weer Temp. Zicht Plafond Wind METAR/SPECI
23:00
V
-13 °C 15 mi - 250° 250° 5 kt METAR CYUL 200400Z 25005KT 15SM FEW058 FEW250 M13/M19 A3037 RMK SC1CI1 SC TR SLP289
22:00
V
-12 °C 15 mi - 290° 290° 4 kt METAR CYUL 200300Z 29004KT 15SM FEW250 M12/M19 A3035 RMK CI1 SLP284
21:00
V
-12 °C 15 mi - 280° 280° 5 kt METAR CYUL 200200Z 28005KT 250V320 15SM FEW250 M12/M19 A3034 RMK CI1 CI TR SLP279
20:00
V
-12 °C 15 mi - 250° 250° 6 kt METAR CYUL 200100Z 25006KT 15SM FEW250 M12/M19 A3031 RMK CI1 SLP271
19:00
V
-11 °C 15 mi - 260° 260° 9 kt METAR CYUL 200000Z 26009KT 15SM FEW180 FEW250 M11/M18 A3030 RMK AC1CI1 SLP267
18:00
V
-10 °C 15 mi - 240° 240° 14 kt METAR CYUL 192300Z 24014KT 15SM FEW030 FEW180 FEW220 FEW250 M10/M18 A3028 RMK CF1AC1CC1CI1 CF TR CC TR CI TR SLP259
17:00
V
-10 °C 15 mi - 250° 250° 15 kt METAR CYUL 192200Z 25015KT 15SM FEW030 FEW250 M10/M17 A3026 RMK CF1CI1 CF TR CI TR SLP250
16:00
V
-9 °C 15 mi - 260° 260° 16 - 21 kt METAR CYUL 192100Z 26016G21KT 15SM FEW030 FEW250 M09/M17 A3024 RMK CF1CI1 CF TR CI TR SLP244
15:00
V
-9 °C 15 mi - 260° 260° 13 kt METAR CYUL 192000Z 26013KT 15SM FEW025 FEW035 FEW250 M09/M16 A3021 RMK CF1CU1CI1 CF TR CU TR CI TR SLP236
14:00
V
-9 °C 15 mi - 250° 250° 12 kt METAR CYUL 191900Z 25012KT 15SM FEW025 FEW250 M09/M17 A3020 RMK CF1CI1 CF TR CI TR SLP232
13:00
V
-9 °C 14 mi - 270° 270° 12 kt METAR CYUL 191800Z 27012KT 14SM FEW025 FEW250 M09/M17 A3020 RMK CF1CI1 CI TR SLP231
12:00
V
-10 °C 15 mi - 270° 270° 13 kt METAR CYUL 191700Z 27013KT 15SM FEW025 FEW250 M10/M18 A3020 RMK CU1CI1 CI TR SLP232
11:00
V
-10 °C 15 mi - 250° 250° 14 kt METAR CYUL 191600Z 25014KT 15SM FEW025 FEW250 M10/M17 A3020 RMK CU1CI1 CI TR SLP231
10:00
V
-11 °C 15 mi - 270° 270° 12 kt METAR CYUL 191500Z 27012KT 15SM FEW025 FEW250 M11/M18 A3019 RMK CF1CI1 CI TR SLP227
09:00
V
-11 °C 30 mi - 270° 270° 14 kt METAR CYUL 191400Z 27014KT 30SM FEW030 M11/M19 A3016 RMK CF1 CF TR SLP217
08:00
V
-12 °C 30 mi - 280° 280° 14 - 19 kt METAR CYUL 191300Z 28014G19KT 30SM FEW020 M12/M18 A3013 RMK CF1 CF TR SLP208
07:00
V
-13 °C 15 mi - 250° 250° 11 kt METAR CYUL 191200Z 25011KT 15SM FEW020 M13/M18 A3008 RMK SC1 SC TR SLP190
06:00
V
-11 °C 15 mi - 280° 280° 12 - 17 kt METAR CYUL 191100Z 28012G17KT 15SM FEW018 FEW070 M11/M18 A3004 RMK SC1AC1 SC TR AC TR SLP178
05:00
V
-10 °C 15 mi - 270° 270° 8 - 15 kt METAR CYUL 191000Z 27008G15KT 15SM FEW018 M10/M18 A3000 RMK SC1 SC TR PRESRR SLP165
04:00
V
-9 °C 15 mi - 270° 270° 10 kt METAR CYUL 190900Z 27010KT 15SM FEW018 M09/M15 A2994 RMK CF1 CF TR PRESRR SLP141
03:00
V
-8 °C 15 mi - 290° 290° 12 kt METAR CYUL 190800Z 29012KT 15SM DRSN FEW035 SCT075 M08/M13 A2988 RMK SC1AC2 SLP123
02:14
M
-7 °C 4 mi 2.700 ft 300° 300° 8 - 15 kt METAR CYUL 190714Z 30008G15KT 4SM -SN DRSN BKN027 OVC040 M07/M13 A2985 RMK SC6SC2 SLP113
02:00
V
-7 °C 15 mi 8.500 ft 290° 290° 14 - 19 kt METAR CYUL 190700Z 29014G19KT 15SM DRSN SCT032 SCT065 OVC085 M07/M13 A2984 RMK SC3SC1AS4 PRESRR SLP109
01:00
V
-6 °C 15 mi 7.500 ft 280° 280° 10 - 16 kt METAR CYUL 190600Z 28010G16KT 15SM FEW018 OVC075 M06/M13 A2979 RMK SC1AC8 SC TR SLP092